Terminal Aerodrome Forecast
Issued by NWS Hastings, NE

Home | Current Version | Previous Version | Text Only | Print | Product List | Glossary On
Versions: 1 2 3 4 5 6 7 8 9 10 11 12 13 14
000
FTUS45 KGID 192320
TAFEAR
TAF
KEAR 192320Z 2000/2024 17012KT P6SM SKC
     FM200200 17010KT P6SM SKC WS020/19040KT
     FM200600 19013G20KT P6SM FEW250 WS020/20050KT
     FM201400 18017G24KT P6SM FEW120 SCT250 WS020/19045KT
     FM201800 18023G32KT P6SM SCT060 BKN120=

USA.gov is the U.S. government's official web portal to all federal, state and local government web resources and services.